Impacts TAF Board INFO
FOR SITUATIONAL AWARENESS. NOT TO BE USED FOR FLIGHT PLANNING PURPOSES.
IDs:

KDCA - Washington/National, VA, US

Issued at 0854 UTC 13 Dec 2017
Updated at 0922 UTC 13 Dec 2017
Potential Impact None Slight Moderate High
Time0852Z 13/10Z 13/11Z 13/12Z 13/13Z 13/14Z 13/15Z 13/16Z 13/17Z 13/18Z 13/19Z 13/20Z 13/21Z 13/22Z>>
Type OBS PRVL PRVL PRVL PRVL PRVL PRVL PRVL PRVL PRVL PRVL PRVL PRVL PRVL
VIS 10 >6 >6 >6 >6 >6 >6 >6 >6 >6 >6 >6 >6 >6
CIG -- 50 50 50 -- -- -- -- -- -- -- -- 50 50
Cover FEW BKN BKN BKN FEW FEW FEW FEW FEW FEW FEW FEW BKN BKN
FltCat VFR VFR VFR VFR VFR VFR VFR VFR VFR VFR VFR VFR VFR VFR
WX -- -- -- -- -- -- -- -- -- -- -- -- -- --
WDir 290 300 300 300 290 290 290 290 290 290 290 290 240 240
WSpd 14 15 15 15 17 17 17 17 17 17 17 17 8 8
WGst 23 27 27 27 27 27 27 27 27 27 27 27 -- --

Raw TAF
KDCA 130854Z 1309/1412 30015G27KT P6SM BKN050
  FM131300 29017G27KT P6SM FEW250
  FM132100 24008KT P6SM BKN050
  FM140400 20004KT P6SM OVC080


Raw METAR
KDCA 130852Z 29014G23KT 10SM FEW060 M05/M17 A2979 RMK AO2 SLP088 T10501172 50012
KDCA 130752Z 30017G24KT 10SM FEW060 M05/M17 A2980 RMK AO2 SLP089 T10501172
KDCA 130652Z 30016G26KT 10SM BKN060 M04/M17 A2978 RMK AO2 PK WND 29026/0610 SLP083 T10441172

METAR Board
Radar Display
Forecast Discussion

FOR SITUATIONAL AWARENESS. NOT TO BE USED FOR FLIGHT PLANNING PURPOSES.